createdAt,value
2022-12-01T00:04:11.414Z,17.84
2022-12-01T00:09:26.998Z,17.84
2022-12-01T00:14:42.065Z,17.83
2022-12-01T00:19:57.023Z,17.81
2022-12-01T00:25:12.116Z,17.80
2022-12-01T00:30:27.453Z,17.78
2022-12-01T00:35:43.011Z,17.77
2022-12-01T00:40:58.252Z,17.75
2022-12-01T00:46:14.144Z,17.74
2022-12-01T00:51:29.323Z,17.74
2022-12-01T00:56:45.368Z,17.74
2022-12-01T01:02:01.375Z,17.73
2022-12-01T01:07:17.120Z,17.71
2022-12-01T01:12:32.326Z,17.72
2022-12-01T01:17:48.082Z,17.72
2022-12-01T01:23:03.064Z,17.76
2022-12-01T01:28:18.377Z,17.75
2022-12-01T01:33:34.343Z,17.74
2022-12-01T01:38:50.107Z,17.72
2022-12-01T01:44:05.060Z,17.72
2022-12-01T01:49:20.335Z,17.71
2022-12-01T01:54:36.439Z,17.72
2022-12-01T01:59:52.077Z,17.70
2022-12-01T02:05:07.207Z,17.70
2022-12-01T02:10:22.568Z,17.69
2022-12-01T02:15:37.839Z,17.69
2022-12-01T02:20:53.034Z,17.68
2022-12-01T02:26:07.833Z,17.69
2022-12-01T02:31:23.101Z,17.68
2022-12-01T02:36:38.060Z,17.68
2022-12-01T02:41:53.072Z,17.66
2022-12-01T02:47:08.031Z,17.66
2022-12-01T02:52:23.036Z,17.67
2022-12-01T02:57:38.138Z,17.66
2022-12-01T03:02:53.169Z,17.65
2022-12-01T03:08:08.074Z,17.65
2022-12-01T03:13:23.065Z,17.64
2022-12-01T03:18:38.330Z,17.63
2022-12-01T03:23:54.026Z,17.63
2022-12-01T03:29:09.268Z,17.63
2022-12-01T03:34:25.123Z,17.64
2022-12-01T03:39:40.346Z,17.63
2022-12-01T03:44:56.483Z,17.64
2022-12-01T03:50:12.019Z,17.64
2022-12-01T03:55:27.071Z,17.66
2022-12-01T04:00:42.063Z,17.65
2022-12-01T04:05:57.082Z,17.65
2022-12-01T04:11:12.093Z,17.67
2022-12-01T04:16:27.128Z,17.68
2022-12-01T04:21:42.334Z,17.69
2022-12-01T04:26:58.077Z,17.69
2022-12-01T04:32:13.030Z,17.72
2022-12-01T04:37:28.051Z,17.76
2022-12-01T04:42:43.413Z,17.76
2022-12-01T04:47:59.134Z,17.73
2022-12-01T04:53:14.338Z,17.68
2022-12-01T04:58:30.165Z,17.63
2022-12-01T05:03:45.361Z,17.61
2022-12-01T05:09:01.125Z,17.57
2022-12-01T05:14:16.105Z,17.55
2022-12-01T05:19:31.453Z,17.52
2022-12-01T05:24:47.049Z,17.48
2022-12-01T05:30:02.087Z,17.44
2022-12-01T05:35:17.385Z,17.41
2022-12-01T05:40:33.081Z,17.38
2022-12-01T05:45:48.460Z,17.33
2022-12-01T05:51:04.036Z,17.31
2022-12-01T05:56:19.413Z,17.28
2022-12-01T06:01:35.095Z,17.25
2022-12-01T06:06:50.021Z,17.23
2022-12-01T06:12:05.047Z,17.21
2022-12-01T06:17:20.398Z,17.19
2022-12-01T06:22:36.102Z,17.16
2022-12-01T06:27:51.106Z,17.16
2022-12-01T06:33:06.075Z,17.15
2022-12-01T06:38:21.142Z,17.14
2022-12-01T06:43:36.445Z,17.12
2022-12-01T06:48:52.105Z,17.16
2022-12-01T06:54:07.443Z,17.17
2022-12-01T06:59:23.360Z,17.16
2022-12-01T07:04:39.067Z,17.14
2022-12-01T07:09:54.056Z,17.12
2022-12-01T07:15:09.047Z,17.12
2022-12-01T07:20:23.862Z,17.12
2022-12-01T07:25:39.580Z,17.11
2022-12-01T07:30:55.088Z,17.10
2022-12-01T07:36:10.109Z,17.04
2022-12-01T07:41:25.043Z,17.09
2022-12-01T07:46:40.126Z,17.09
2022-12-01T07:51:55.132Z,17.10
2022-12-01T07:57:10.091Z,17.08
2022-12-01T08:02:25.145Z,17.08
2022-12-01T08:07:40.148Z,17.09
2022-12-01T08:12:55.451Z,17.09
2022-12-01T08:18:11.131Z,17.08
2022-12-01T08:23:26.287Z,17.10
2022-12-01T08:28:42.099Z,17.10
2022-12-01T08:33:57.497Z,17.12
2022-12-01T08:39:13.176Z,17.12
2022-12-01T08:44:28.144Z,17.13
2022-12-01T08:49:43.059Z,17.13
2022-12-01T08:54:58.096Z,17.14
2022-12-01T09:00:13.087Z,17.14
2022-12-01T09:05:28.453Z,17.14
2022-12-01T09:10:43.850Z,17.14
2022-12-01T09:15:59.250Z,17.15
2022-12-01T09:21:14.140Z,17.14
2022-12-01T09:26:29.067Z,17.14
2022-12-01T09:31:44.153Z,17.15
2022-12-01T09:36:58.868Z,17.18
2022-12-01T09:42:14.096Z,17.19
2022-12-01T09:47:29.144Z,17.20
2022-12-01T09:52:44.062Z,17.22
2022-12-01T09:57:59.106Z,17.22
2022-12-01T10:03:14.431Z,17.23
2022-12-01T10:08:30.071Z,17.23
2022-12-01T10:13:45.111Z,17.23
2022-12-01T10:18:59.856Z,17.23
2022-12-01T10:24:15.088Z,17.21
2022-12-01T10:29:30.091Z,17.23
2022-12-01T10:34:45.154Z,17.21
2022-12-01T10:40:00.094Z,17.18
2022-12-01T10:45:15.126Z,17.12
2022-12-01T10:50:30.095Z,17.09
2022-12-01T10:55:48.055Z,17.11
2022-12-01T11:01:03.235Z,17.12
2022-12-01T11:06:18.062Z,17.13
2022-12-01T11:11:33.106Z,17.13
2022-12-01T11:16:48.186Z,17.15
2022-12-01T11:22:03.077Z,17.14
2022-12-01T11:27:17.880Z,17.15
2022-12-01T11:32:33.806Z,17.13
2022-12-01T11:38:13.095Z,17.13
2022-12-01T11:43:24.443Z,17.15
2022-12-01T11:48:40.124Z,17.16
2022-12-01T11:53:55.120Z,17.19
2022-12-01T11:59:09.858Z,17.29
2022-12-01T12:04:25.063Z,17.36
2022-12-01T12:09:44.883Z,17.39
2022-12-01T12:15:00.150Z,17.43
2022-12-01T12:20:15.251Z,17.45
2022-12-01T12:25:31.058Z,17.52
2022-12-01T12:30:46.189Z,17.53
2022-12-01T12:36:01.564Z,17.54
2022-12-01T12:41:17.069Z,17.57
2022-12-01T12:46:32.176Z,17.61
2022-12-01T12:51:49.130Z,17.63
2022-12-01T12:57:04.179Z,17.67
2022-12-01T13:02:19.159Z,17.69
2022-12-01T13:07:34.189Z,17.71
2022-12-01T13:12:49.081Z,17.72
2022-12-01T13:18:04.142Z,17.74
2022-12-01T13:23:19.059Z,17.77
2022-12-01T13:28:34.204Z,17.79
2022-12-01T13:34:27.129Z,17.79
2022-12-01T13:39:42.092Z,17.79
2022-12-01T13:44:57.089Z,17.80
2022-12-01T13:50:12.120Z,17.80
2022-12-01T13:55:27.080Z,17.79
2022-12-01T14:00:42.546Z,17.79
2022-12-01T14:05:57.831Z,17.80
2022-12-01T14:11:13.435Z,17.77
2022-12-01T14:16:29.213Z,17.79
2022-12-01T14:21:44.066Z,17.77
2022-12-01T14:26:59.150Z,17.79
2022-12-01T14:32:14.125Z,17.78
2022-12-01T14:37:29.104Z,17.80
2022-12-01T14:42:44.114Z,17.77
2022-12-01T14:47:59.124Z,17.77
2022-12-01T14:53:14.084Z,17.75
2022-12-01T14:58:29.130Z,17.76
2022-12-01T15:03:44.207Z,17.72
2022-12-01T15:09:31.628Z,17.70
2022-12-01T15:14:33.874Z,17.65
2022-12-01T15:19:49.480Z,17.61
2022-12-01T15:25:05.476Z,17.56
2022-12-01T15:30:21.598Z,17.53
2022-12-01T15:35:37.145Z,17.49
2022-12-01T15:41:21.095Z,17.45
2022-12-01T15:46:27.190Z,17.42
2022-12-01T15:51:42.431Z,17.39
2022-12-01T15:56:58.453Z,17.36
2022-12-01T16:02:14.122Z,17.33
2022-12-01T16:07:50.224Z,17.32
2022-12-01T16:13:04.056Z,17.31
2022-12-01T16:18:19.438Z,17.28
2022-12-01T16:23:35.129Z,17.27
2022-12-01T16:28:50.132Z,17.26
2022-12-01T16:34:18.426Z,17.24
2022-12-01T16:39:39.934Z,17.23
2022-12-01T16:44:55.138Z,17.22
2022-12-01T16:50:10.022Z,17.21
2022-12-01T16:55:25.469Z,17.21
2022-12-01T17:00:41.133Z,17.19
2022-12-01T17:05:56.105Z,17.18
2022-12-01T17:11:12.416Z,17.16
2022-12-01T17:16:28.248Z,17.15
2022-12-01T17:21:43.448Z,17.15
2022-12-01T17:26:59.123Z,17.14
2022-12-01T17:32:14.141Z,17.11
2022-12-01T17:37:29.058Z,17.11
2022-12-01T17:42:48.730Z,17.10
2022-12-01T17:48:06.123Z,17.10
2022-12-01T17:53:21.111Z,17.09
2022-12-01T17:58:36.119Z,17.07
2022-12-01T18:03:51.098Z,17.08
2022-12-01T18:09:05.884Z,17.07
2022-12-01T18:14:21.100Z,17.06
2022-12-01T18:19:36.482Z,17.05
2022-12-01T18:24:52.603Z,17.04
2022-12-01T18:30:08.147Z,17.04
2022-12-01T18:35:26.296Z,17.03
2022-12-01T18:40:45.132Z,17.01
2022-12-01T18:46:00.334Z,17.01
2022-12-01T18:51:16.123Z,16.99
2022-12-01T18:56:31.119Z,17.00
2022-12-01T19:01:46.219Z,16.98
2022-12-01T19:07:01.113Z,16.98
2022-12-01T19:12:17.469Z,16.96
2022-12-01T19:17:33.178Z,16.96
2022-12-01T19:22:48.342Z,16.95
2022-12-01T19:28:04.097Z,17.06
2022-12-01T19:33:19.096Z,17.20
2022-12-01T19:38:34.180Z,17.26
2022-12-01T19:43:49.168Z,17.27
2022-12-01T19:49:03.879Z,17.31
2022-12-01T19:54:19.109Z,17.34
2022-12-01T19:59:33.980Z,17.34
2022-12-01T20:04:50.402Z,17.37
2022-12-01T20:10:06.108Z,17.38
2022-12-01T20:15:20.887Z,17.37
2022-12-01T20:20:36.150Z,17.38
2022-12-01T20:25:51.163Z,17.42
2022-12-01T20:31:06.124Z,17.39
2022-12-01T20:36:21.175Z,17.39
2022-12-01T20:41:36.164Z,17.41
2022-12-01T20:46:52.499Z,17.39
2022-12-01T20:52:08.152Z,17.38
2022-12-01T20:57:23.188Z,17.38
2022-12-01T21:02:38.196Z,17.41
2022-12-01T21:07:53.268Z,17.41
2022-12-01T21:13:08.077Z,17.42
2022-12-01T21:18:22.904Z,17.46
2022-12-01T21:23:38.162Z,17.48
2022-12-01T21:28:53.177Z,17.50
2022-12-01T21:34:08.435Z,17.52
2022-12-01T21:39:24.142Z,17.54
2022-12-01T21:44:39.168Z,17.56
2022-12-01T21:49:54.167Z,17.57
2022-12-01T21:55:09.173Z,17.60
2022-12-01T22:00:24.160Z,17.63
2022-12-01T22:05:39.122Z,17.64
2022-12-01T22:10:54.117Z,17.65
2022-12-01T22:16:09.486Z,17.65
2022-12-01T22:21:25.287Z,17.66
2022-12-01T22:26:40.171Z,17.67
2022-12-01T22:31:55.148Z,17.69
2022-12-01T22:37:10.122Z,17.71
2022-12-01T22:42:25.195Z,17.75
2022-12-01T22:47:40.382Z,17.75
2022-12-01T22:52:56.430Z,17.75
2022-12-01T22:58:12.513Z,17.76
2022-12-01T23:03:28.202Z,17.77
2022-12-01T23:08:43.115Z,17.76
2022-12-01T23:13:58.195Z,17.78
2022-12-01T23:19:13.163Z,17.78
2022-12-01T23:24:33.482Z,17.70
2022-12-01T23:29:48.917Z,17.74
2022-12-01T23:35:04.171Z,17.74
2022-12-01T23:40:19.196Z,17.70
2022-12-01T23:45:34.144Z,17.72
2022-12-01T23:50:49.136Z,17.71
2022-12-01T23:56:03.916Z,17.69
